createdAt,value
2018-09-12T00:05:40.799Z,3.30
2018-09-12T00:08:09.626Z,5.05
2018-09-12T00:10:38.523Z,6.87
2018-09-12T00:13:08.251Z,3.77
2018-09-12T00:15:37.215Z,4.65
2018-09-12T00:18:06.187Z,4.08
2018-09-12T00:20:35.557Z,3.50
2018-09-12T00:23:04.683Z,3.15
2018-09-12T00:25:33.516Z,6.95
2018-09-12T00:28:02.510Z,3.55
2018-09-12T00:30:31.612Z,3.80
2018-09-12T00:33:00.680Z,4.20
2018-09-12T00:35:29.476Z,3.85
2018-09-12T00:37:58.379Z,3.90
2018-09-12T00:40:27.594Z,5.30
2018-09-12T00:42:57.073Z,4.92
2018-09-12T00:45:25.977Z,3.92
2018-09-12T00:47:55.228Z,3.90
2018-09-12T00:50:24.675Z,5.55
2018-09-12T00:52:53.744Z,4.47
2018-09-12T00:55:23.045Z,3.90
2018-09-12T00:57:51.971Z,5.60
2018-09-12T01:00:20.856Z,5.97
2018-09-12T01:02:49.982Z,4.70
2018-09-12T01:05:18.756Z,5.58
2018-09-12T01:07:47.746Z,3.98
2018-09-12T01:10:16.450Z,3.72
2018-09-12T01:12:45.448Z,4.50
2018-09-12T01:15:14.524Z,4.10
2018-09-12T01:17:43.725Z,4.28
2018-09-12T01:20:12.724Z,3.55
2018-09-12T01:22:41.383Z,5.17
2018-09-12T01:25:10.455Z,6.60
2018-09-12T01:27:39.657Z,4.00
2018-09-12T01:30:10.334Z,3.62
2018-09-12T01:32:39.267Z,4.10
2018-09-12T01:35:08.332Z,4.62
2018-09-12T01:37:37.406Z,7.15
2018-09-12T01:40:06.435Z,4.75
2018-09-12T01:42:36.015Z,10.53
2018-09-12T01:45:04.956Z,7.45
2018-09-12T01:47:34.151Z,4.65
2018-09-12T01:50:03.155Z,5.50
2018-09-12T01:52:31.955Z,9.98
2018-09-12T01:55:00.989Z,6.85
2018-09-12T01:57:29.663Z,6.45
2018-09-12T01:59:58.952Z,3.95
2018-09-12T02:02:27.968Z,3.50
2018-09-12T02:04:56.679Z,6.55
2018-09-12T02:07:25.687Z,5.83
2018-09-12T02:09:54.437Z,3.65
2018-09-12T02:12:23.544Z,7.10
2018-09-12T02:14:52.570Z,10.00
2018-09-12T02:17:21.219Z,6.70
2018-09-12T02:19:50.325Z,9.30
2018-09-12T02:22:19.509Z,5.12
2018-09-12T02:24:49.112Z,6.70
2018-09-12T02:27:18.129Z,6.17
2018-09-12T02:29:47.468Z,5.37
2018-09-12T02:32:16.306Z,6.67
2018-09-12T02:34:45.115Z,5.58
2018-09-12T02:37:13.986Z,8.65
2018-09-12T02:39:42.891Z,5.42
2018-09-12T02:42:11.879Z,12.13
2018-09-12T02:44:41.215Z,11.93
2018-09-12T02:47:14.996Z,11.30
2018-09-12T02:49:43.951Z,9.23
2018-09-12T02:52:12.548Z,8.88
2018-09-12T02:54:41.672Z,7.35
2018-09-12T02:57:10.707Z,7.25
2018-09-12T02:59:39.759Z,5.58
2018-09-12T03:02:08.863Z,10.80
2018-09-12T03:04:49.955Z,6.00
2018-09-12T03:07:19.238Z,5.60
2018-09-12T03:09:48.326Z,7.90
2018-09-12T03:12:17.467Z,6.70
2018-09-12T03:14:46.531Z,5.40
2018-09-12T03:17:15.622Z,9.83
2018-09-12T03:19:44.847Z,8.03
2018-09-12T03:22:13.819Z,6.85
2018-09-12T03:24:42.816Z,6.87
2018-09-12T03:27:11.950Z,5.67
2018-09-12T03:29:40.811Z,7.70
2018-09-12T03:32:09.743Z,9.95
2018-09-12T03:34:39.131Z,10.03
2018-09-12T03:37:07.897Z,12.98
2018-09-12T03:39:36.883Z,10.28
2018-09-12T03:42:06.339Z,12.40
2018-09-12T03:44:35.131Z,13.05
2018-09-12T03:47:04.259Z,15.98
2018-09-12T03:49:33.481Z,20.40
2018-09-12T03:52:02.154Z,10.40
2018-09-12T03:54:30.930Z,11.60
2018-09-12T03:57:00.276Z,18.75
2018-09-12T03:59:29.111Z,14.15
2018-09-12T04:01:57.820Z,13.80
2018-09-12T04:04:27.055Z,12.45
2018-09-12T04:06:55.931Z,16.60
2018-09-12T04:09:25.033Z,22.22
2018-09-12T04:11:54.321Z,19.32
2018-09-12T04:14:23.219Z,20.10
2018-09-12T04:16:52.167Z,17.27
2018-09-12T04:19:20.987Z,23.77
2018-09-12T04:21:49.872Z,14.47
2018-09-12T04:24:18.652Z,11.57
2018-09-12T04:26:47.895Z,13.05
2018-09-12T04:29:16.791Z,14.95
2018-09-12T04:31:45.568Z,12.45
2018-09-12T04:34:15.384Z,10.82
2018-09-12T04:36:44.394Z,18.20
2018-09-12T04:39:13.843Z,13.50
2018-09-12T04:41:44.217Z,17.77
2018-09-12T04:44:12.987Z,8.80
2018-09-12T04:46:42.495Z,11.00
2018-09-12T04:49:11.869Z,9.83
2018-09-12T04:51:40.696Z,17.30
2018-09-12T04:54:09.785Z,20.40
2018-09-12T04:56:38.583Z,14.85
2018-09-12T04:59:07.477Z,16.32
2018-09-12T05:01:36.455Z,8.58
2018-09-12T05:04:05.470Z,13.60
2018-09-12T05:06:34.399Z,12.20
2018-09-12T05:09:03.308Z,8.85
2018-09-12T05:11:32.375Z,14.63
2018-09-12T05:14:01.353Z,7.20
2018-09-12T05:16:30.236Z,15.32
2018-09-12T05:18:59.151Z,8.75
2018-09-12T05:21:28.032Z,10.63
2018-09-12T05:23:56.906Z,6.65
2018-09-12T05:26:25.786Z,13.65
2018-09-12T05:28:54.898Z,12.33
2018-09-12T05:31:24.208Z,7.75
2018-09-12T05:33:53.432Z,12.47
2018-09-12T05:36:22.102Z,8.80
2018-09-12T05:38:50.926Z,7.45
2018-09-12T05:41:19.993Z,13.58
2018-09-12T05:43:49.273Z,9.68
2018-09-12T05:46:18.278Z,15.23
2018-09-12T05:48:47.541Z,18.32
2018-09-12T05:51:16.558Z,13.43
2018-09-12T05:53:45.557Z,11.00
2018-09-12T05:56:14.622Z,10.38
2018-09-12T05:58:43.427Z,6.75
2018-09-12T06:01:12.188Z,7.83
2018-09-12T06:03:41.452Z,15.63
2018-09-12T06:06:10.526Z,6.67
2018-09-12T06:08:39.431Z,16.35
2018-09-12T06:11:08.456Z,9.23
2018-09-12T06:13:37.199Z,22.95
2018-09-12T06:16:05.999Z,14.45
2018-09-12T06:18:35.175Z,13.75
2018-09-12T06:21:04.464Z,9.43
2018-09-12T06:23:33.663Z,13.58
2018-09-12T06:26:02.965Z,8.88
2018-09-12T06:28:32.241Z,9.13
2018-09-12T06:31:01.511Z,13.18
2018-09-12T06:33:30.925Z,12.63
2018-09-12T06:36:00.315Z,8.10
2018-09-12T06:38:29.673Z,9.43
2018-09-12T06:40:59.301Z,6.47
2018-09-12T06:43:28.822Z,10.15
2018-09-12T06:46:37.532Z,12.28
2018-09-12T06:49:07.194Z,12.58
2018-09-12T06:51:36.316Z,9.10
2018-09-12T06:54:05.871Z,9.58
2018-09-12T06:56:35.361Z,9.55
2018-09-12T06:59:04.955Z,8.80
2018-09-12T07:01:34.415Z,8.23
2018-09-12T07:04:04.003Z,8.90
2018-09-12T07:06:33.029Z,6.15
2018-09-12T07:09:02.477Z,3.25
2018-09-12T07:11:32.303Z,4.53
2018-09-12T07:14:01.685Z,3.95
2018-09-12T07:16:31.147Z,4.53
2018-09-12T07:19:00.747Z,6.95
2018-09-12T07:21:30.374Z,2.87
2018-09-12T07:23:59.939Z,5.85
2018-09-12T07:26:29.354Z,5.53
2018-09-12T07:28:58.891Z,3.92
2018-09-12T07:31:28.093Z,7.17
2018-09-12T07:33:57.267Z,7.08
2018-09-12T07:36:26.850Z,6.20
2018-09-12T07:38:56.354Z,5.58
2018-09-12T07:41:25.732Z,3.90
2018-09-12T07:43:55.599Z,3.02
2018-09-12T07:46:24.995Z,6.00
2018-09-12T07:48:54.310Z,4.28
2018-09-12T07:51:23.804Z,12.05
2018-09-12T07:53:53.466Z,8.43
2018-09-12T07:56:22.650Z,9.23
2018-09-12T07:58:52.051Z,5.35
2018-09-12T08:01:21.607Z,4.75
2018-09-12T08:03:51.010Z,3.87
2018-09-12T08:06:20.540Z,2.70
2018-09-12T08:08:49.759Z,1.95
2018-09-12T08:11:19.035Z,2.08
2018-09-12T08:13:48.144Z,1.50
2018-09-12T08:16:17.399Z,1.57
2018-09-12T08:18:46.632Z,5.97
2018-09-12T08:21:16.354Z,1.40
2018-09-12T08:23:45.755Z,4.28
2018-09-12T08:26:15.186Z,4.62
2018-09-12T08:28:45.024Z,1.92
2018-09-12T08:31:14.478Z,2.12
2018-09-12T08:33:43.972Z,1.92
2018-09-12T08:36:13.492Z,4.50
2018-09-12T08:38:43.561Z,2.67
2018-09-12T08:41:13.003Z,1.52
2018-09-12T08:43:42.770Z,2.75
2018-09-12T08:46:11.918Z,5.30
2018-09-12T08:48:41.325Z,1.10
2018-09-12T08:51:11.268Z,2.85
2018-09-12T08:53:40.555Z,1.52
2018-09-12T08:56:10.056Z,1.57
2018-09-12T08:58:39.595Z,1.75
2018-09-12T09:01:08.970Z,1.77
2018-09-12T09:03:38.411Z,3.20
2018-09-12T09:06:07.978Z,1.85
2018-09-12T09:08:37.382Z,7.35
2018-09-12T09:11:06.726Z,1.60
2018-09-12T09:13:37.187Z,3.22
2018-09-12T09:16:06.577Z,2.83
2018-09-12T09:18:35.839Z,2.40
2018-09-12T09:21:05.865Z,1.87
2018-09-12T09:23:35.174Z,2.45
2018-09-12T09:26:04.436Z,4.72
2018-09-12T09:28:34.758Z,2.10
2018-09-12T09:31:04.063Z,2.20
2018-09-12T09:33:33.475Z,3.40
2018-09-12T09:36:02.898Z,1.40
2018-09-12T09:38:32.323Z,2.42
2018-09-12T09:41:01.511Z,1.70
2018-09-12T09:43:30.852Z,1.50
2018-09-12T09:46:00.117Z,4.12
2018-09-12T09:48:29.465Z,2.25
2018-09-12T09:50:58.919Z,2.15
2018-09-12T09:53:28.718Z,2.70
2018-09-12T09:55:58.106Z,3.47
2018-09-12T09:58:27.815Z,1.40
2018-09-12T10:01:02.095Z,2.25
2018-09-12T10:03:36.567Z,1.72
2018-09-12T10:06:10.770Z,4.70
2018-09-12T10:08:45.188Z,5.42
2018-09-12T10:11:14.382Z,3.55
2018-09-12T10:13:43.813Z,3.47
2018-09-12T10:16:13.297Z,2.05
2018-09-12T10:18:42.721Z,3.80
2018-09-12T10:21:12.094Z,5.72
2018-09-12T10:23:41.808Z,6.00
2018-09-12T10:26:11.240Z,2.05
2018-09-12T10:28:40.534Z,3.15
2018-09-12T10:31:09.971Z,1.98
2018-09-12T10:33:39.235Z,3.90
2018-09-12T10:36:09.449Z,1.10
2018-09-12T10:38:38.786Z,2.45
2018-09-12T10:41:08.126Z,4.37
2018-09-12T10:43:37.369Z,1.57
2018-09-12T10:46:06.801Z,2.15
2018-09-12T10:48:36.167Z,3.67
2018-09-12T10:51:05.487Z,1.98
2018-09-12T10:53:34.986Z,3.70
2018-09-12T10:56:04.376Z,1.12
2018-09-12T10:58:34.711Z,1.42
2018-09-12T11:01:04.336Z,1.37
2018-09-12T11:03:33.723Z,1.77
2018-09-12T11:06:03.017Z,2.65
2018-09-12T11:08:33.141Z,1.47
2018-09-12T11:11:02.511Z,1.95
2018-09-12T11:13:31.802Z,1.98
2018-09-12T11:16:01.481Z,3.25
2018-09-12T11:18:30.885Z,2.65
2018-09-12T11:21:00.258Z,1.12
2018-09-12T11:23:29.878Z,1.75
2018-09-12T11:25:59.862Z,2.30
2018-09-12T11:28:29.173Z,1.32
2018-09-12T11:30:59.071Z,3.22
2018-09-12T11:33:30.049Z,2.62
2018-09-12T11:35:59.362Z,3.58
2018-09-12T11:38:29.098Z,1.10
2018-09-12T11:40:58.367Z,2.35
2018-09-12T11:43:27.787Z,1.05
2018-09-12T11:45:57.242Z,1.90
2018-09-12T11:48:26.823Z,1.75
2018-09-12T11:50:56.205Z,1.57
2018-09-12T11:53:25.906Z,3.55
2018-09-12T11:55:55.105Z,1.47
2018-09-12T11:58:24.395Z,1.37
2018-09-12T12:00:54.011Z,1.15
2018-09-12T12:03:23.408Z,1.65
2018-09-12T12:05:53.591Z,3.15
2018-09-12T12:08:22.863Z,1.57
2018-09-12T12:10:52.143Z,1.20
2018-09-12T12:13:21.364Z,0.80
2018-09-12T12:15:51.731Z,3.00
2018-09-12T12:18:21.170Z,1.92
2018-09-12T12:20:51.217Z,2.87
2018-09-12T12:23:20.970Z,2.87
2018-09-12T12:25:50.307Z,2.52
2018-09-12T12:28:19.599Z,1.00
2018-09-12T12:30:49.200Z,1.72
2018-09-12T12:33:18.626Z,2.35
2018-09-12T12:35:48.003Z,1.10
2018-09-12T12:38:18.419Z,1.40
2018-09-12T12:40:47.823Z,1.37
2018-09-12T12:43:16.980Z,1.25
2018-09-12T12:45:46.540Z,1.55
2018-09-12T12:48:16.658Z,1.75
2018-09-12T12:50:46.099Z,1.60
2018-09-12T12:53:15.820Z,1.25
2018-09-12T12:55:45.103Z,2.92
2018-09-12T12:58:14.979Z,3.25
2018-09-12T13:00:44.520Z,3.42
2018-09-12T13:03:13.935Z,1.00
2018-09-12T13:05:43.422Z,1.40
2018-09-12T13:08:13.009Z,0.70
2018-09-12T13:10:42.360Z,2.25
2018-09-12T13:13:11.835Z,1.37
2018-09-12T13:15:41.443Z,2.70
2018-09-12T13:18:10.742Z,4.80
2018-09-12T13:20:39.967Z,3.72
2018-09-12T13:23:09.317Z,3.50
2018-09-12T13:25:38.688Z,6.37
2018-09-12T13:28:07.967Z,1.02
2018-09-12T13:30:37.291Z,4.58
2018-09-12T13:33:06.890Z,2.62
2018-09-12T13:35:36.280Z,2.67
2018-09-12T13:38:05.739Z,1.45
2018-09-12T13:40:35.912Z,0.72
2018-09-12T13:43:05.225Z,3.33
2018-09-12T13:45:34.531Z,1.15
2018-09-12T13:48:03.920Z,1.30
2018-09-12T13:50:33.224Z,2.35
2018-09-12T13:53:02.812Z,3.02
2018-09-12T13:55:32.013Z,2.15
2018-09-12T13:58:01.317Z,2.75
2018-09-12T14:00:31.608Z,3.35
2018-09-12T14:03:03.205Z,3.17
2018-09-12T14:05:33.326Z,2.45
2018-09-12T14:08:02.636Z,2.05
2018-09-12T14:10:31.722Z,5.70
2018-09-12T14:13:01.230Z,2.62
2018-09-12T14:15:30.276Z,1.65
2018-09-12T14:17:59.419Z,1.35
2018-09-12T14:20:28.786Z,4.20
2018-09-12T14:22:57.946Z,4.05
2018-09-12T14:25:27.091Z,3.60
2018-09-12T14:27:56.534Z,4.87
2018-09-12T14:30:25.934Z,3.80
2018-09-12T14:32:55.128Z,2.08
2018-09-12T14:35:24.413Z,0.90
2018-09-12T14:37:53.522Z,2.15
2018-09-12T14:40:22.721Z,0.70
2018-09-12T14:42:52.608Z,2.35
2018-09-12T14:45:22.290Z,0.60
2018-09-12T14:47:51.578Z,2.15
2018-09-12T14:50:20.962Z,0.70
2018-09-12T14:52:50.480Z,1.12
2018-09-12T14:55:19.462Z,2.90
2018-09-12T14:57:48.783Z,0.80
2018-09-12T15:00:23.196Z,2.17
2018-09-12T15:02:52.181Z,3.42
2018-09-12T15:05:21.250Z,0.80
2018-09-12T15:07:50.431Z,1.02
2018-09-12T15:10:19.678Z,0.90
2018-09-12T15:12:48.586Z,2.50
2018-09-12T15:15:17.625Z,1.75
2018-09-12T15:17:47.093Z,2.70
2018-09-12T15:20:16.564Z,0.80
2018-09-12T15:22:45.865Z,1.10
2018-09-12T15:25:16.099Z,1.35
2018-09-12T15:27:45.088Z,3.08
2018-09-12T15:30:14.190Z,4.53
2018-09-12T15:32:43.574Z,0.98
2018-09-12T15:35:12.646Z,1.80
2018-09-12T15:37:41.790Z,1.15
2018-09-12T15:40:10.979Z,5.58
2018-09-12T15:42:40.322Z,3.33
2018-09-12T15:45:09.482Z,2.65
2018-09-12T15:47:39.196Z,5.75
2018-09-12T15:50:08.279Z,5.42
2018-09-12T15:52:37.596Z,1.32
2018-09-12T15:55:06.988Z,1.82
2018-09-12T15:57:36.185Z,2.00
2018-09-12T16:00:05.922Z,4.00
2018-09-12T16:02:35.356Z,2.30
2018-09-12T16:05:04.683Z,3.40
2018-09-12T16:07:33.792Z,2.83
2018-09-12T16:10:02.900Z,1.25
2018-09-12T16:12:31.901Z,2.58
2018-09-12T16:15:00.948Z,1.57
2018-09-12T16:17:30.442Z,2.20
2018-09-12T16:19:59.658Z,3.12
2018-09-12T16:22:28.918Z,2.35
2018-09-12T16:24:58.738Z,2.70
2018-09-12T16:27:28.115Z,1.80
2018-09-12T16:29:57.211Z,3.12
2018-09-12T16:32:26.942Z,2.77
2018-09-12T16:34:56.019Z,3.12
2018-09-12T16:37:25.125Z,9.15
2018-09-12T16:39:54.929Z,2.65
2018-09-12T16:42:24.236Z,2.92
2018-09-12T16:44:53.034Z,5.87
2018-09-12T16:47:22.337Z,2.62
2018-09-12T16:49:51.444Z,8.65
2018-09-12T16:52:20.729Z,4.45
2018-09-12T16:54:51.135Z,5.70
2018-09-12T16:57:19.332Z,3.52
2018-09-12T16:59:48.493Z,3.17
2018-09-12T17:02:17.626Z,4.10
2018-09-12T17:04:46.944Z,4.45
2018-09-12T17:07:16.200Z,3.70
2018-09-12T17:09:45.824Z,5.72
2018-09-12T17:12:15.150Z,5.40
2018-09-12T17:14:49.707Z,7.40
2018-09-12T17:17:18.904Z,9.95
2018-09-12T17:19:48.282Z,8.88
2018-09-12T17:22:17.690Z,5.08
2018-09-12T17:24:46.871Z,6.30
2018-09-12T17:27:16.093Z,5.53
2018-09-12T17:29:45.826Z,9.88
2018-09-12T17:32:15.127Z,14.40
2018-09-12T17:34:44.386Z,5.05
2018-09-12T17:37:13.687Z,8.68
2018-09-12T17:39:42.778Z,3.33
2018-09-12T17:42:12.102Z,3.58
2018-09-12T17:44:41.531Z,5.90
2018-09-12T17:47:10.694Z,5.08
2018-09-12T17:49:39.749Z,5.90
2018-09-12T17:52:09.259Z,4.10
2018-09-12T17:54:37.117Z,4.30
2018-09-12T17:57:06.224Z,5.42
2018-09-12T17:59:35.770Z,5.53
2018-09-12T18:02:05.104Z,3.50
2018-09-12T18:04:34.383Z,9.48
2018-09-12T18:07:03.955Z,3.90
2018-09-12T18:09:34.478Z,12.68
2018-09-12T18:12:03.694Z,5.83
2018-09-12T18:14:33.347Z,8.95
2018-09-12T18:17:02.647Z,11.10
2018-09-12T18:19:32.043Z,10.23
2018-09-12T18:22:01.623Z,9.88
2018-09-12T18:24:32.803Z,8.73
2018-09-12T18:27:02.847Z,6.55
2018-09-12T18:29:33.400Z,7.53
2018-09-12T18:32:03.244Z,5.22
2018-09-12T18:34:32.892Z,5.12
2018-09-12T18:37:02.079Z,3.52
2018-09-12T18:39:31.380Z,14.18
2018-09-12T18:42:01.578Z,6.53
2018-09-12T18:44:30.735Z,5.45
2018-09-12T18:47:00.507Z,4.58
2018-09-12T18:49:29.982Z,4.28
2018-09-12T18:51:59.299Z,7.95
2018-09-12T18:54:28.608Z,7.55
2018-09-12T18:56:59.583Z,4.25
2018-09-12T18:59:28.809Z,6.35
2018-09-12T19:01:57.932Z,4.30
2018-09-12T19:04:27.736Z,8.05
2018-09-12T19:06:57.040Z,3.90
2018-09-12T19:09:27.119Z,6.05
2018-09-12T19:11:56.686Z,3.65
2018-09-12T19:14:25.711Z,4.22
2018-09-12T19:16:54.979Z,3.98
2018-09-12T19:19:24.970Z,4.37
2018-09-12T19:21:54.707Z,5.22
2018-09-12T19:24:24.106Z,4.55
2018-09-12T19:26:53.792Z,5.53
2018-09-12T19:29:22.992Z,6.72
2018-09-12T19:31:51.970Z,4.62
2018-09-12T19:34:21.458Z,4.30
2018-09-12T19:36:50.624Z,4.15
2018-09-12T19:39:19.790Z,9.28
2018-09-12T19:41:49.643Z,5.97
2018-09-12T19:44:18.837Z,5.67
2018-09-12T19:46:48.199Z,4.95
2018-09-12T19:49:17.700Z,3.67
2018-09-12T19:51:46.915Z,5.15
2018-09-12T19:54:16.254Z,4.40
2018-09-12T19:56:45.790Z,3.05
2018-09-12T19:59:14.967Z,3.55
2018-09-12T20:01:43.915Z,3.80
2018-09-12T20:04:13.397Z,4.12
2018-09-12T20:06:42.475Z,4.28
2018-09-12T20:09:15.664Z,5.58
2018-09-12T20:11:45.078Z,6.45
2018-09-12T20:14:14.572Z,4.80
2018-09-12T20:16:44.167Z,7.33
2018-09-12T20:19:13.646Z,3.98
2018-09-12T20:21:43.331Z,4.83
2018-09-12T20:24:12.806Z,6.83
2018-09-12T20:26:42.021Z,6.55
2018-09-12T20:29:12.558Z,6.12
2018-09-12T20:31:42.531Z,6.95
2018-09-12T20:34:12.271Z,6.87
2018-09-12T20:36:41.502Z,4.45
2018-09-12T20:39:12.250Z,9.60
2018-09-12T20:41:41.467Z,4.95
2018-09-12T20:44:11.367Z,8.03
2018-09-12T20:46:40.938Z,4.35
2018-09-12T20:49:10.253Z,5.62
2018-09-12T20:51:43.742Z,5.12
2018-09-12T20:54:15.940Z,8.93
2018-09-12T20:56:45.881Z,6.70
2018-09-12T20:59:15.211Z,6.72
2018-09-12T21:01:44.422Z,14.18
2018-09-12T21:04:13.995Z,10.98
2018-09-12T21:06:43.376Z,8.40
2018-09-12T21:09:13.753Z,8.95
2018-09-12T21:11:43.491Z,8.63
2018-09-12T21:14:12.729Z,9.68
2018-09-12T21:16:41.910Z,7.78
2018-09-12T21:19:11.730Z,9.68
2018-09-12T21:21:40.914Z,6.78
2018-09-12T21:24:10.119Z,8.23
2018-09-12T21:26:39.702Z,9.25
2018-09-12T21:29:09.139Z,13.13
2018-09-12T21:31:38.296Z,6.75
2018-09-12T21:34:07.716Z,7.50
2018-09-12T21:36:36.959Z,9.45
2018-09-12T21:39:09.458Z,8.20
2018-09-12T21:41:38.806Z,6.33
2018-09-12T21:44:08.119Z,7.78
2018-09-12T21:46:37.586Z,10.45
2018-09-12T21:49:06.795Z,8.18
2018-09-12T21:51:36.017Z,11.03
2018-09-12T21:54:05.635Z,11.05
2018-09-12T21:56:34.852Z,14.20
2018-09-12T21:59:04.030Z,12.40
2018-09-12T22:01:33.523Z,13.55
2018-09-12T22:04:02.445Z,9.73
2018-09-12T22:06:31.423Z,17.10
2018-09-12T22:09:01.262Z,10.90
2018-09-12T22:11:30.841Z,13.53
2018-09-12T22:14:00.241Z,11.08
2018-09-12T22:16:29.232Z,11.90
2018-09-12T22:18:58.946Z,11.80
2018-09-12T22:21:28.030Z,14.80
2018-09-12T22:23:57.411Z,11.78
2018-09-12T22:26:26.247Z,14.43
2018-09-12T22:28:55.326Z,8.63
2018-09-12T22:31:24.490Z,13.85
2018-09-12T22:33:53.526Z,13.62
2018-09-12T22:36:22.298Z,10.15
2018-09-12T22:38:51.856Z,11.55
2018-09-12T22:41:21.063Z,11.05
2018-09-12T22:43:50.251Z,8.23
2018-09-12T22:46:19.544Z,7.60
2018-09-12T22:48:48.398Z,10.35
2018-09-12T22:51:17.297Z,10.18
2018-09-12T22:53:46.868Z,11.88
2018-09-12T22:56:15.491Z,10.90
2018-09-12T22:58:44.292Z,12.93
2018-09-12T23:01:13.442Z,9.30
2018-09-12T23:03:42.361Z,6.58
2018-09-12T23:06:11.752Z,7.75
2018-09-12T23:08:41.191Z,5.65
2018-09-12T23:11:09.999Z,8.85
2018-09-12T23:13:39.036Z,7.28
2018-09-12T23:16:08.238Z,6.03
2018-09-12T23:18:37.999Z,5.60
2018-09-12T23:21:06.988Z,12.90
2018-09-12T23:23:36.135Z,10.38
2018-09-12T23:26:05.387Z,8.48
2018-09-12T23:28:34.265Z,9.95
2018-09-12T23:31:03.366Z,13.75
2018-09-12T23:33:32.293Z,9.60
2018-09-12T23:36:01.260Z,9.20
2018-09-12T23:38:30.294Z,14.47
2018-09-12T23:40:58.982Z,10.43
2018-09-12T23:43:27.920Z,11.35
2018-09-12T23:45:57.052Z,8.53
2018-09-12T23:48:25.904Z,11.22
2018-09-12T23:50:54.923Z,13.03
2018-09-12T23:53:24.490Z,11.78
2018-09-12T23:55:53.615Z,9.38
2018-09-12T23:58:22.347Z,15.23
